Time;durP1;ratioP1;P1;durP2;ratioP2;P2;SDS_P1;SDS_P2;PMS_P1;PMS_P2;Temp;Humidity;BMP_temperature;BMP_pressure;BME280_temperature;BME280_humidity;BME280_pressure;Samples;Min_cycle;Max_cycle;Signal;HPM_P1;HPM_P2
2022/06/22 00:00:06;;;;;;;8.75;7.03;;;;;;;;;;5051419;28;20112;-41
2022/06/22 00:02:40;;;;;;;12.10;7.13;;;;;;;;;;5052662;28;20070;-41
2022/06/22 00:05:07;;;;;;;11.55;8.23;;;;;;;;;;5052540;28;20036;-41
2022/06/22 00:07:42;;;;;;;19.58;7.72;;;;;;;;;;5052848;28;20044;-42
2022/06/22 00:10:21;;;;;;;14.05;8.40;;;;;;;;;;5052729;28;20029;-41
2022/06/22 00:12:48;;;;;;;9.98;7.30;;;;;;;;;;5052427;28;20078;-41
2022/06/22 00:15:40;;;;;;;7.80;7.00;;;;;;;;;;5052104;28;20049;-41
2022/06/22 00:18:35;;;;;;;14.90;7.05;;;;;;;;;;5049899;28;20056;-41
2022/06/22 00:21:03;;;;;;;8.63;6.65;;;;;;;;;;5051298;28;20488;-41
2022/06/22 00:23:34;;;;;;;10.45;6.93;;;;;;;;;;5051156;28;20403;-42
2022/06/22 00:26:26;;;;;;;10.98;6.95;;;;;;;;;;5052234;28;20033;-40
2022/06/22 00:28:58;;;;;;;10.10;6.10;;;;;;;;;;5051679;28;20546;-41
2022/06/22 00:31:23;;;;;;;14.75;7.20;;;;;;;;;;5052167;28;20434;-41
2022/06/22 00:34:01;;;;;;;9.05;5.60;;;;;;;;;;5051932;28;20086;-41
2022/06/22 00:36:28;;;;;;;9.32;6.30;;;;;;;;;;5052018;28;20044;-41
2022/06/22 00:38:53;;;;;;;7.90;6.43;;;;;;;;;;5051868;28;20403;-41
2022/06/22 00:41:22;;;;;;;9.52;6.63;;;;;;;;;;5052179;28;20033;-41
2022/06/22 00:43:48;;;;;;;12.27;6.93;;;;;;;;;;5051686;28;20021;-41
2022/06/22 00:46:21;;;;;;;11.23;6.25;;;;;;;;;;5051901;28;20159;-41
2022/06/22 00:48:49;;;;;;;10.50;8.77;;;;;;;;;;5051741;28;20490;-41
2022/06/22 00:51:21;;;;;;;10.95;7.13;;;;;;;;;;5051774;28;20834;-41
2022/06/22 00:54:01;;;;;;;11.35;7.60;;;;;;;;;;5051855;28;20100;-41
2022/06/22 00:56:38;;;;;;;10.60;7.20;;;;;;;;;;5051951;28;20036;-41
2022/06/22 00:59:16;;;;;;;12.63;7.50;;;;;;;;;;5051619;28;20043;-41
2022/06/22 01:01:49;;;;;;;11.55;7.63;;;;;;;;;;5051499;28;20499;-41
2022/06/22 01:04:19;;;;;;;11.75;7.18;;;;;;;;;;5051696;28;20098;-41
2022/06/22 01:06:50;;;;;;;11.93;7.07;;;;;;;;;;5051768;28;20048;-41
2022/06/22 01:09:25;;;;;;;14.40;7.13;;;;;;;;;;5051735;28;20029;-41
2022/06/22 01:12:18;;;;;;;9.25;7.30;;;;;;;;;;5051402;28;20418;-41
2022/06/22 01:14:57;;;;;;;10.18;6.80;;;;;;;;;;5051396;28;20056;-42
2022/06/22 01:17:55;;;;;;;9.15;7.60;;;;;;;;;;5050978;28;20041;-41
2022/06/22 01:20:39;;;;;;;17.42;7.03;;;;;;;;;;5038442;28;20648;-41
2022/06/22 01:23:04;;;;;;;9.50;7.28;;;;;;;;;;5051339;28;20029;-41
2022/06/22 01:25:50;;;;;;;11.77;7.32;;;;;;;;;;5051241;28;20020;-41
2022/06/22 01:28:15;;;;;;;11.55;6.90;;;;;;;;;;5051141;28;20210;-41
2022/06/22 01:30:48;;;;;;;8.43;7.25;;;;;;;;;;5051090;28;20484;-42
2022/06/22 01:33:24;;;;;;;14.73;7.85;;;;;;;;;;5051470;28;20065;-41
2022/06/22 01:35:54;;;;;;;13.57;6.93;;;;;;;;;;5050729;28;20082;-41
2022/06/22 01:38:28;;;;;;;16.73;7.07;;;;;;;;;;5051215;28;20139;-40
2022/06/22 01:41:02;;;;;;;9.15;7.00;;;;;;;;;;5050925;28;20044;-41
2022/06/22 01:43:27;;;;;;;11.52;7.38;;;;;;;;;;5051137;28;20464;-41
2022/06/22 01:45:55;;;;;;;15.32;7.03;;;;;;;;;;5050999;28;20017;-41
2022/06/22 01:48:34;;;;;;;9.63;7.50;;;;;;;;;;5051302;28;20147;-41
2022/06/22 01:51:05;;;;;;;17.42;7.70;;;;;;;;;;5051018;28;20067;-41
2022/06/22 01:53:33;;;;;;;11.35;7.18;;;;;;;;;;5050820;28;20582;-41
2022/06/22 01:56:14;;;;;;;9.52;6.55;;;;;;;;;;5050815;28;20064;-41
2022/06/22 01:58:48;;;;;;;12.52;7.35;;;;;;;;;;5050683;28;20391;-41
2022/06/22 02:01:16;;;;;;;11.90;7.15;;;;;;;;;;5050603;28;20120;-41
2022/06/22 02:03:53;;;;;;;9.27;7.63;;;;;;;;;;5050886;28;20356;-41
2022/06/22 02:09:14;;;;;;;11.90;6.07;;;;;;;;;;5050841;28;20025;-41
2022/06/22 02:11:43;;;;;;;11.13;6.47;;;;;;;;;;5050573;28;20075;-41
2022/06/22 02:14:10;;;;;;;9.75;6.57;;;;;;;;;;5050356;28;20036;-41
2022/06/22 02:16:40;;;;;;;8.70;6.63;;;;;;;;;;5050924;28;20098;-41
2022/06/22 02:19:08;;;;;;;11.00;6.63;;;;;;;;;;5050908;28;20048;-41
2022/06/22 02:21:45;;;;;;;9.93;6.85;;;;;;;;;;5050806;28;20037;-41
2022/06/22 02:24:13;;;;;;;10.68;5.78;;;;;;;;;;5050540;28;20578;-42
2022/06/22 02:26:47;;;;;;;11.85;5.72;;;;;;;;;;5050544;28;20032;-41
2022/06/22 02:29:15;;;;;;;13.02;5.35;;;;;;;;;;5050407;28;20075;-41
2022/06/22 02:31:41;;;;;;;9.02;6.03;;;;;;;;;;5050415;28;20021;-41
2022/06/22 02:34:06;;;;;;;10.15;6.13;;;;;;;;;;5050488;28;20467;-41
2022/06/22 02:36:33;;;;;;;13.15;5.80;;;;;;;;;;5050396;28;20040;-41
2022/06/22 02:39:01;;;;;;;5.93;5.22;;;;;;;;;;5050295;28;20033;-41
2022/06/22 02:44:30;;;;;;;15.75;5.80;;;;;;;;;;5050695;28;20391;-42
2022/06/22 02:47:03;;;;;;;9.43;5.47;;;;;;;;;;5052089;28;20033;-41
2022/06/22 02:49:31;;;;;;;8.63;5.47;;;;;;;;;;5054055;28;20514;-41
2022/06/22 02:51:58;;;;;;;7.25;5.90;;;;;;;;;;5053735;28;20360;-41
2022/06/22 02:54:29;;;;;;;7.07;5.85;;;;;;;;;;5053976;28;20371;-41
2022/06/22 02:57:18;;;;;;;11.18;5.68;;;;;;;;;;5053825;28;20032;-41
2022/06/22 02:59:45;;;;;;;12.02;6.07;;;;;;;;;;5053194;28;20540;-41
2022/06/22 03:02:11;;;;;;;10.38;5.53;;;;;;;;;;5053551;28;20024;-41
2022/06/22 03:04:37;;;;;;;7.05;4.97;;;;;;;;;;5053686;28;20029;-41
2022/06/22 03:07:04;;;;;;;10.60;5.40;;;;;;;;;;5053813;28;20387;-41
2022/06/22 03:09:29;;;;;;;10.38;5.22;;;;;;;;;;5053502;28;20084;-41
2022/06/22 03:11:57;;;;;;;11.50;5.78;;;;;;;;;;5053368;28;20017;-41
2022/06/22 03:14:25;;;;;;;7.70;5.03;;;;;;;;;;5053141;28;20122;-41
2022/06/22 03:16:54;;;;;;;6.45;4.82;;;;;;;;;;5053427;28;20060;-41
2022/06/22 03:19:23;;;;;;;6.63;5.43;;;;;;;;;;5053643;28;20036;-41
2022/06/22 03:21:50;;;;;;;8.25;5.28;;;;;;;;;;5053201;28;20032;-41
2022/06/22 03:24:54;;;;;;;10.07;5.53;;;;;;;;;;5053301;28;20032;-41
2022/06/22 03:27:25;;;;;;;8.27;4.78;;;;;;;;;;5050697;28;20044;-41
2022/06/22 03:29:58;;;;;;;10.88;5.15;;;;;;;;;;5050588;28;20037;-41
2022/06/22 03:32:24;;;;;;;;;;;;;;;;;;5052460;28;20040;-41
2022/06/22 03:34:51;;;;;;;10.05;6.70;;;;;;;;;;5052979;28;19915;-41
2022/06/22 03:37:22;;;;;;;10.10;4.50;;;;;;;;;;5053138;28;20021;-41
2022/06/22 03:39:49;;;;;;;10.93;4.85;;;;;;;;;;5052893;28;20040;-41
2022/06/22 03:42:21;;;;;;;8.77;4.97;;;;;;;;;;5052933;28;20147;-41
2022/06/22 03:44:51;;;;;;;20.15;6.43;;;;;;;;;;5052777;28;20041;-41
2022/06/22 03:47:21;;;;;;;7.53;4.88;;;;;;;;;;5052767;28;20045;-41
2022/06/22 03:49:46;;;;;;;10.55;4.88;;;;;;;;;;5052728;28;20087;-41
2022/06/22 03:52:26;;;;;;;13.25;5.90;;;;;;;;;;5052682;28;20111;-41
2022/06/22 03:55:00;;;;;;;8.35;5.38;;;;;;;;;;5052554;28;20586;-41
2022/06/22 03:57:27;;;;;;;7.78;5.32;;;;;;;;;;5052435;28;20047;-41
2022/06/22 03:59:53;;;;;;;8.18;5.30;;;;;;;;;;5052553;28;20057;-41
2022/06/22 04:02:19;;;;;;;12.70;4.95;;;;;;;;;;5052610;28;20066;-41
2022/06/22 04:04:48;;;;;;;10.95;5.70;;;;;;;;;;5052675;28;20467;-41
2022/06/22 04:07:14;;;;;;;7.82;5.65;;;;;;;;;;5052356;28;20043;-41
2022/06/22 04:09:41;;;;;;;12.10;5.63;;;;;;;;;;5050995;28;20016;-41
2022/06/22 04:12:12;;;;;;;7.57;5.10;;;;;;;;;;5052353;28;20463;-41
2022/06/22 04:14:57;;;;;;;9.85;5.22;;;;;;;;;;5052039;28;20522;-41
2022/06/22 04:17:31;;;;;;;8.07;4.57;;;;;;;;;;5052142;28;20060;-41
2022/06/22 04:20:02;;;;;;;9.32;4.63;;;;;;;;;;5052483;28;20112;-41
2022/06/22 04:22:29;;;;;;;10.48;4.97;;;;;;;;;;5052311;28;20043;-41
2022/06/22 04:25:00;;;;;;;11.70;5.40;;;;;;;;;;5052245;28;20020;-41
2022/06/22 04:27:30;;;;;;;12.23;5.85;;;;;;;;;;5052041;28;20118;-41
2022/06/22 04:29:59;;;;;;;11.40;5.65;;;;;;;;;;5052109;28;20017;-40
2022/06/22 04:32:39;;;;;;;8.32;5.03;;;;;;;;;;5051987;28;20441;-41
2022/06/22 04:35:19;;;;;;;6.60;4.57;;;;;;;;;;5052232;28;20033;-41
2022/06/22 04:37:51;;;;;;;8.95;4.88;;;;;;;;;;5051651;28;20112;-41
2022/06/22 04:40:19;;;;;;;5.47;4.47;;;;;;;;;;5051833;28;20040;-41
2022/06/22 04:42:45;;;;;;;9.55;4.75;;;;;;;;;;5051554;28;20025;-42
2022/06/22 04:45:22;;;;;;;6.80;4.65;;;;;;;;;;5051662;28;20025;-41
2022/06/22 04:47:47;;;;;;;9.45;5.50;;;;;;;;;;5051542;28;20048;-40
2022/06/22 04:50:13;;;;;;;17.92;5.70;;;;;;;;;;5051894;28;20017;-41
2022/06/22 04:52:43;;;;;;;9.07;4.68;;;;;;;;;;5051657;28;20041;-41
2022/06/22 04:55:16;;;;;;;12.32;5.10;;;;;;;;;;5051605;28;20043;-41
2022/06/22 04:57:44;;;;;;;12.02;5.57;;;;;;;;;;5051575;28;20061;-42
2022/06/22 05:00:13;;;;;;;8.15;5.47;;;;;;;;;;5051457;28;20024;-41
2022/06/22 05:02:41;;;;;;;17.08;5.90;;;;;;;;;;5051771;28;20048;-41
2022/06/22 05:05:17;;;;;;;13.20;5.75;;;;;;;;;;5051245;28;20031;-41
2022/06/22 05:07:57;;;;;;;14.30;4.95;;;;;;;;;;5051568;28;20057;-41
2022/06/22 05:10:34;;;;;;;12.07;4.90;;;;;;;;;;5050512;28;20499;-41
2022/06/22 05:13:02;;;;;;;11.85;5.28;;;;;;;;;;5051065;28;20028;-41
2022/06/22 05:15:30;;;;;;;9.40;5.93;;;;;;;;;;5050991;28;20045;-41
2022/06/22 05:17:58;;;;;;;7.20;5.13;;;;;;;;;;5051402;28;20028;-40
2022/06/22 05:20:29;;;;;;;10.80;5.72;;;;;;;;;;5051140;28;20029;-41
2022/06/22 05:22:55;;;;;;;12.43;5.80;;;;;;;;;;5050994;28;20044;-41
2022/06/22 05:25:21;;;;;;;10.18;6.80;;;;;;;;;;5050452;28;20024;-42
2022/06/22 05:27:47;;;;;;;8.35;5.25;;;;;;;;;;5050688;28;20040;-41
2022/06/22 05:30:13;;;;;;;8.85;5.75;;;;;;;;;;5050644;28;20023;-41
2022/06/22 05:32:43;;;;;;;13.40;4.95;;;;;;;;;;5051191;28;20545;-41
2022/06/22 05:35:12;;;;;;;7.15;3.95;;;;;;;;;;5050857;28;20044;-42
2022/06/22 05:37:39;;;;;;;6.80;4.05;;;;;;;;;;5050956;28;20014;-41
2022/06/22 05:40:04;;;;;;;12.40;4.95;;;;;;;;;;5051131;28;20082;-42
2022/06/22 05:42:31;;;;;;;9.98;4.45;;;;;;;;;;5051174;28;20024;-41
2022/06/22 05:44:58;;;;;;;20.30;4.05;;;;;;;;;;5050923;28;20095;-41
2022/06/22 05:47:27;;;;;;;14.38;4.85;;;;;;;;;;5050865;28;20017;-41
2022/06/22 05:50:11;;;;;;;9.95;4.00;;;;;;;;;;5050776;28;20025;-45
2022/06/22 05:52:58;;;;;;;10.98;4.25;;;;;;;;;;5050874;28;20028;-42
2022/06/22 05:55:44;;;;;;;9.25;3.80;;;;;;;;;;5050877;28;20379;-40
2022/06/22 05:58:14;;;;;;;12.70;4.57;;;;;;;;;;5050173;28;20112;-41
2022/06/22 06:00:48;;;;;;;7.38;3.75;;;;;;;;;;5049309;28;20524;-41
2022/06/22 06:03:23;;;;;;;6.18;3.67;;;;;;;;;;5050596;28;20037;-41
2022/06/22 06:05:51;;;;;;;6.22;3.28;;;;;;;;;;5049391;28;20133;-40
2022/06/22 06:08:19;;;;;;;7.68;3.72;;;;;;;;;;5050624;28;20017;-41
2022/06/22 06:10:44;;;;;;;9.95;4.80;;;;;;;;;;5050546;28;20029;-41
2022/06/22 06:13:10;;;;;;;8.00;3.15;;;;;;;;;;5050534;28;20020;-41
2022/06/22 06:15:38;;;;;;;10.57;5.68;;;;;;;;;;5050652;28;20099;-41
2022/06/22 06:18:04;;;;;;;5.50;3.60;;;;;;;;;;5050678;28;20083;-41
2022/06/22 06:20:34;;;;;;;13.13;4.03;;;;;;;;;;5051398;28;20040;-41
2022/06/22 06:23:02;;;;;;;7.40;3.30;;;;;;;;;;5054442;28;20044;-41
2022/06/22 06:28:35;;;;;;;4.88;3.00;;;;;;;;;;5054433;28;20564;-41
2022/06/22 06:31:39;;;;;;;5.80;3.45;;;;;;;;;;5054328;28;20032;-41
2022/06/22 06:34:12;;;;;;;8.57;3.05;;;;;;;;;;5051545;28;20060;-41
2022/06/22 06:36:43;;;;;;;7.22;3.22;;;;;;;;;;5051558;28;20115;-41
2022/06/22 06:39:13;;;;;;;10.27;3.72;;;;;;;;;;5052834;28;20083;-41
2022/06/22 06:41:43;;;;;;;11.73;3.55;;;;;;;;;;5052652;28;20123;-41
2022/06/22 06:44:10;;;;;;;9.50;3.65;;;;;;;;;;5054030;28;20079;-41
2022/06/22 06:46:38;;;;;;;7.47;3.50;;;;;;;;;;5054241;28;20111;-41
2022/06/22 06:49:09;;;;;;;5.93;3.35;;;;;;;;;;5054238;28;20436;-42
2022/06/22 06:51:36;;;;;;;12.15;4.03;;;;;;;;;;5054264;28;20383;-41
2022/06/22 06:54:09;;;;;;;11.00;3.63;;;;;;;;;;5053788;28;20021;-41
2022/06/22 06:56:47;;;;;;;8.98;4.57;;;;;;;;;;5054000;28;20044;-41
2022/06/22 06:59:16;;;;;;;11.02;4.18;;;;;;;;;;5053875;28;20075;-41
2022/06/22 07:01:44;;;;;;;3.40;2.83;;;;;;;;;;5035956;28;20036;-41
2022/06/22 07:04:18;;;;;;;8.23;3.35;;;;;;;;;;5053624;28;20091;-42
2022/06/22 07:06:45;;;;;;;7.65;2.85;;;;;;;;;;5053464;28;20032;-41
2022/06/22 07:09:16;;;;;;;8.70;3.90;;;;;;;;;;5053569;28;20025;-41
2022/06/22 07:11:48;;;;;;;6.73;3.53;;;;;;;;;;5053786;28;20033;-42
2022/06/22 07:14:23;;;;;;;9.27;2.80;;;;;;;;;;5052076;28;20132;-41
2022/06/22 07:16:51;;;;;;;6.60;3.35;;;;;;;;;;5053375;28;20064;-41
2022/06/22 07:19:22;;;;;;;6.60;3.30;;;;;;;;;;5051997;28;20032;-41
2022/06/22 07:21:51;;;;;;;7.80;3.38;;;;;;;;;;5053076;28;20415;-41
2022/06/22 07:24:37;;;;;;;14.27;3.05;;;;;;;;;;5053144;28;20017;-41
2022/06/22 07:27:20;;;;;;;8.00;3.20;;;;;;;;;;5053032;28;20036;-41
2022/06/22 07:29:56;;;;;;;11.95;3.80;;;;;;;;;;5052833;28;20029;-41
2022/06/22 07:32:27;;;;;;;6.60;3.72;;;;;;;;;;5052470;28;20033;-41
2022/06/22 07:35:00;;;;;;;3.63;2.78;;;;;;;;;;5052832;28;20075;-40
2022/06/22 07:37:29;;;;;;;9.57;2.97;;;;;;;;;;5051658;28;20223;-41
2022/06/22 07:39:59;;;;;;;8.52;3.40;;;;;;;;;;5052855;28;20017;-41
2022/06/22 07:42:25;;;;;;;10.32;3.25;;;;;;;;;;5052844;28;20459;-41
2022/06/22 07:44:51;;;;;;;6.05;2.63;;;;;;;;;;5052733;28;20105;-41
2022/06/22 07:47:23;;;;;;;4.70;2.25;;;;;;;;;;5052922;28;20025;-41
2022/06/22 07:49:54;;;;;;;6.60;3.15;;;;;;;;;;5052922;28;20199;-42
2022/06/22 07:52:25;;;;;;;7.60;3.15;;;;;;;;;;5052792;28;20037;-41
2022/06/22 07:54:53;;;;;;;4.78;3.25;;;;;;;;;;5052608;28;20119;-41
2022/06/22 07:57:37;;;;;;;6.53;3.00;;;;;;;;;;5052690;28;20013;-41
2022/06/22 08:00:02;;;;;;;5.25;3.15;;;;;;;;;;5051432;28;20033;-41
2022/06/22 08:02:57;;;;;;;11.57;2.45;;;;;;;;;;5052596;28;20049;-41
2022/06/22 08:05:26;;;;;;;13.43;3.35;;;;;;;;;;5047328;28;20048;-46
2022/06/22 08:07:52;;;;;;;4.80;2.72;;;;;;;;;;5052358;28;20053;-42
2022/06/22 08:10:32;;;;;;;6.43;2.70;;;;;;;;;;5052297;28;20098;-41
2022/06/22 08:13:10;;;;;;;8.75;3.17;;;;;;;;;;5052250;28;20029;-41
2022/06/22 08:15:41;;;;;;;8.23;3.20;;;;;;;;;;5052271;28;20053;-41
2022/06/22 08:18:08;;;;;;;8.18;2.83;;;;;;;;;;5052246;28;20033;-41
2022/06/22 08:20:36;;;;;;;6.30;2.83;;;;;;;;;;5052181;28;20031;-41
2022/06/22 08:23:04;;;;;;;10.20;3.15;;;;;;;;;;5052090;28;20714;-41
2022/06/22 08:25:31;;;;;;;7.10;2.55;;;;;;;;;;5052045;28;20009;-41
2022/06/22 08:27:56;;;;;;;6.65;3.15;;;;;;;;;;5052251;28;20160;-41
2022/06/22 08:30:22;;;;;;;15.07;3.00;;;;;;;;;;5052105;28;20438;-41
2022/06/22 08:32:54;;;;;;;12.48;3.08;;;;;;;;;;5051892;28;20047;-41
2022/06/22 08:35:23;;;;;;;3.58;2.78;;;;;;;;;;5052070;28;20166;-41
2022/06/22 08:37:48;;;;;;;7.80;3.47;;;;;;;;;;5051782;28;20029;-41
2022/06/22 08:40:21;;;;;;;10.70;2.67;;;;;;;;;;5051826;28;20029;-41
2022/06/22 08:42:46;;;;;;;;;;;;;;;;;;5052061;28;20044;-42
2022/06/22 08:45:11;;;;;;;6.68;2.20;;;;;;;;;;5050696;28;19962;-41
2022/06/22 08:47:37;;;;;;;4.22;2.53;;;;;;;;;;5051634;28;20036;-41
2022/06/22 08:50:09;;;;;;;6.30;2.35;;;;;;;;;;5051608;28;20033;-41
2022/06/22 08:52:40;;;;;;;8.40;3.08;;;;;;;;;;5051556;28;20483;-41
2022/06/22 08:55:20;;;;;;;6.07;3.50;;;;;;;;;;5051383;28;20123;-42
2022/06/22 08:58:04;;;;;;;8.95;2.92;;;;;;;;;;5051507;28;20029;-41
2022/06/22 09:00:33;;;;;;;6.20;2.15;;;;;;;;;;5050153;28;20033;-41
2022/06/22 09:03:04;;;;;;;5.95;2.67;;;;;;;;;;5051252;28;20033;-42
2022/06/22 09:05:36;;;;;;;4.10;2.22;;;;;;;;;;5051614;28;20033;-41
2022/06/22 09:08:16;;;;;;;4.40;2.90;;;;;;;;;;5051512;28;20029;-41
2022/06/22 09:10:48;;;;;;;10.10;2.42;;;;;;;;;;5051609;28;20513;-41
2022/06/22 09:13:20;;;;;;;8.27;3.30;;;;;;;;;;5051458;28;20395;-41
2022/06/22 09:15:46;;;;;;;;;;;;;;;;;;5050126;28;20064;-41
2022/06/22 09:18:14;;;;;;;5.07;2.28;;;;;;;;;;5051498;28;19950;-41
2022/06/22 09:20:39;;;;;;;10.35;3.10;;;;;;;;;;5051157;28;20025;-41
2022/06/22 09:23:08;;;;;;;8.52;3.10;;;;;;;;;;5051288;28;20055;-41
2022/06/22 09:25:36;;;;;;;5.72;2.83;;;;;;;;;;5051534;28;20076;-41
2022/06/22 09:28:03;;;;;;;8.40;3.17;;;;;;;;;;5051388;28;20028;-41
2022/06/22 09:30:35;;;;;;;10.32;2.35;;;;;;;;;;5050980;28;20504;-41
2022/06/22 09:33:06;;;;;;;6.53;2.65;;;;;;;;;;5051227;28;20064;-41
2022/06/22 09:35:42;;;;;;;13.48;3.20;;;;;;;;;;5051084;28;20221;-42
2022/06/22 09:38:17;;;;;;;6.22;2.47;;;;;;;;;;5050971;28;20032;-42
2022/06/22 09:40:55;;;;;;;6.32;3.03;;;;;;;;;;5051134;28;20112;-41
2022/06/22 09:43:27;;;;;;;6.90;2.78;;;;;;;;;;5050879;28;20490;-41
2022/06/22 09:46:04;;;;;;;7.55;1.98;;;;;;;;;;5050785;28;20029;-42
2022/06/22 09:48:30;;;;;;;8.90;3.22;;;;;;;;;;5051261;28;20037;-41
2022/06/22 09:50:55;;;;;;;6.18;2.33;;;;;;;;;;5050634;28;20422;-41
2022/06/22 09:53:24;;;;;;;8.55;2.10;;;;;;;;;;5050857;28;20029;-41
2022/06/22 09:56:20;;;;;;;8.00;3.15;;;;;;;;;;5052455;28;20025;-41
2022/06/22 10:02:19;;;;;;;14.60;3.85;;;;;;;;;;5053120;28;20384;-42
2022/06/22 10:05:04;;;;;;;6.13;2.60;;;;;;;;;;5054571;28;20068;-41
2022/06/22 10:07:35;;;;;;;4.07;2.50;;;;;;;;;;5054765;28;20471;-41
2022/06/22 10:10:13;;;;;;;5.50;2.58;;;;;;;;;;5053296;28;20029;-41
2022/06/22 10:12:45;;;;;;;4.72;2.55;;;;;;;;;;5054540;28;20029;-41
2022/06/22 10:15:23;;;;;;;6.60;2.83;;;;;;;;;;5054551;28;20048;-41
2022/06/22 10:17:48;;;;;;;12.43;4.75;;;;;;;;;;5054611;28;20458;-41
2022/06/22 10:20:14;;;;;;;15.15;3.80;;;;;;;;;;5054180;28;20033;-41
2022/06/22 10:22:39;;;;;;;10.93;3.95;;;;;;;;;;5054370;28;20033;-41
2022/06/22 10:25:15;;;;;;;7.20;2.92;;;;;;;;;;5054459;28;20028;-40
2022/06/22 10:27:49;;;;;;;6.57;3.25;;;;;;;;;;5054329;28;20092;-41
2022/06/22 10:30:30;;;;;;;7.07;3.45;;;;;;;;;;5054586;28;20429;-41
2022/06/22 10:33:05;;;;;;;5.75;3.90;;;;;;;;;;5054613;28;20025;-41
2022/06/22 10:35:49;;;;;;;5.78;3.90;;;;;;;;;;5054449;28;20029;-41
2022/06/22 10:38:34;;;;;;;6.80;3.78;;;;;;;;;;5054368;28;20032;-41
2022/06/22 10:46:53;;;;;;;7.80;3.45;;;;;;;;;;5054061;28;20406;-42
2022/06/22 10:49:24;;;;;;;6.35;3.38;;;;;;;;;;5054119;28;20017;-42
2022/06/22 10:51:54;;;;;;;11.27;4.25;;;;;;;;;;5054026;28;20068;-41
2022/06/22 10:54:32;;;;;;;11.00;4.20;;;;;;;;;;5053996;28;20110;-41
2022/06/22 10:56:57;;;;;;;9.00;2.85;;;;;;;;;;5052674;28;20398;-41
2022/06/22 10:59:29;;;;;;;4.28;3.05;;;;;;;;;;5054018;28;20021;-42
2022/06/22 11:02:13;;;;;;;7.93;2.67;;;;;;;;;;5053699;28;20122;-41
2022/06/22 11:04:48;;;;;;;9.10;3.30;;;;;;;;;;5054171;28;20360;-42
2022/06/22 11:07:32;;;;;;;8.00;3.90;;;;;;;;;;5053052;28;20037;-42
2022/06/22 11:10:04;;;;;;;9.63;3.83;;;;;;;;;;5053943;28;20025;-42
2022/06/22 11:12:44;;;;;;;7.25;4.32;;;;;;;;;;5053979;28;20039;-41
2022/06/22 11:15:27;;;;;;;12.55;4.65;;;;;;;;;;5053403;28;20132;-42
2022/06/22 11:18:11;;;;;;;12.73;4.40;;;;;;;;;;5053682;28;20086;-42
2022/06/22 11:21:12;;;;;;;11.00;5.47;;;;;;;;;;5053460;28;20776;-41
2022/06/22 11:23:37;;;;;;;11.57;3.83;;;;;;;;;;5050930;28;20072;-41
2022/06/22 11:32:20;;;;;;;11.60;3.75;;;;;;;;;;5042794;28;20044;-42
2022/06/22 11:34:59;;;;;;;4.38;3.38;;;;;;;;;;5053508;28;20037;-41
2022/06/22 11:37:34;;;;;;;7.30;4.03;;;;;;;;;;5053249;28;20025;-41
2022/06/22 11:40:20;;;;;;;8.25;3.50;;;;;;;;;;5053140;28;20479;-42
2022/06/22 11:43:05;;;;;;;11.48;3.97;;;;;;;;;;5052915;28;20476;-41
2022/06/22 11:45:55;;;;;;;10.93;4.38;;;;;;;;;;5053387;28;20059;-41
2022/06/22 11:48:24;;;;;;;11.40;5.10;;;;;;;;;;5053208;28;20391;-41
2022/06/22 11:50:57;;;;;;;8.77;5.13;;;;;;;;;;5052894;28;20013;-41
2022/06/22 11:53:36;;;;;;;7.97;3.80;;;;;;;;;;5052981;28;20025;-42
2022/06/22 11:56:08;;;;;;;6.75;5.25;;;;;;;;;;5052876;28;20029;-41
2022/06/22 11:58:40;;;;;;;6.03;3.22;;;;;;;;;;5052946;28;20024;-41
2022/06/22 12:01:24;;;;;;;5.87;3.40;;;;;;;;;;5052957;28;20037;-43
2022/06/22 12:03:57;;;;;;;8.65;3.97;;;;;;;;;;5052764;28;20345;-41
2022/06/22 12:06:30;;;;;;;5.93;3.92;;;;;;;;;;5052465;28;20037;-41
2022/06/22 12:09:07;;;;;;;11.73;4.28;;;;;;;;;;5052611;28;20509;-41
2022/06/22 12:11:42;;;;;;;7.43;3.70;;;;;;;;;;5051427;28;20079;-44
2022/06/22 12:17:02;;;;;;;7.10;4.13;;;;;;;;;;5052506;28;20033;-41
2022/06/22 12:19:33;;;;;;;10.25;4.05;;;;;;;;;;5052566;28;20043;-41
2022/06/22 12:22:25;;;;;;;8.48;3.60;;;;;;;;;;5052374;28;20044;-41
2022/06/22 12:24:58;;;;;;;8.13;3.70;;;;;;;;;;5051291;28;20044;-41
2022/06/22 12:27:29;;;;;;;5.20;4.32;;;;;;;;;;5052244;28;20120;-41
2022/06/22 12:30:13;;;;;;;11.35;3.40;;;;;;;;;;5051042;28;20052;-41
2022/06/22 12:32:46;;;;;;;7.80;4.05;;;;;;;;;;5052196;28;20044;-42
2022/06/22 12:35:16;;;;;;;6.70;3.90;;;;;;;;;;5052100;28;20499;-42
2022/06/22 12:37:50;;;;;;;10.32;4.18;;;;;;;;;;5052117;28;20044;-41
2022/06/22 12:40:22;;;;;;;6.70;4.03;;;;;;;;;;5052084;28;20053;-41
2022/06/22 12:43:00;;;;;;;5.15;3.22;;;;;;;;;;5051798;28;20116;-42
2022/06/22 12:45:32;;;;;;;12.95;5.18;;;;;;;;;;5051970;28;20109;-41
2022/06/22 12:48:01;;;;;;;8.30;3.10;;;;;;;;;;5051784;28;20096;-42
2022/06/22 12:50:35;;;;;;;9.43;3.80;;;;;;;;;;5051904;28;20617;-42
2022/06/22 12:53:06;;;;;;;5.53;3.22;;;;;;;;;;5051741;28;20024;-41
2022/06/22 12:55:38;;;;;;;5.57;3.70;;;;;;;;;;5051829;28;20071;-41
2022/06/22 12:58:08;;;;;;;8.32;3.83;;;;;;;;;;5051631;28;20028;-42
2022/06/22 13:00:34;;;;;;;6.05;3.03;;;;;;;;;;5051798;28;20065;-41
2022/06/22 13:03:00;;;;;;;9.55;3.47;;;;;;;;;;5051418;28;20041;-41
2022/06/22 13:05:29;;;;;;;9.52;3.75;;;;;;;;;;5051977;28;20537;-41
2022/06/22 13:08:00;;;;;;;12.63;4.85;;;;;;;;;;5051511;28;20037;-41
2022/06/22 13:10:31;;;;;;;8.27;3.92;;;;;;;;;;5051460;28;20479;-41
2022/06/22 13:13:03;;;;;;;9.73;4.10;;;;;;;;;;5051710;28;20075;-41
2022/06/22 13:15:35;;;;;;;5.55;3.72;;;;;;;;;;5051298;28;20098;-42
2022/06/22 13:18:04;;;;;;;7.93;3.95;;;;;;;;;;5051304;28;20052;-41
2022/06/22 13:20:48;;;;;;;7.22;3.40;;;;;;;;;;5051622;28;20456;-41
2022/06/22 13:23:32;;;;;;;10.27;4.05;;;;;;;;;;5051239;28;20037;-41
2022/06/22 13:26:04;;;;;;;4.43;3.45;;;;;;;;;;5051253;28;20040;-41
2022/06/22 13:28:45;;;;;;;6.50;3.35;;;;;;;;;;5051367;28;20037;-42
2022/06/22 13:31:13;;;;;;;7.25;3.22;;;;;;;;;;5050912;28;20044;-42
2022/06/22 13:33:45;;;;;;;4.68;3.55;;;;;;;;;;5051224;28;20417;-42
2022/06/22 13:36:17;;;;;;;5.07;3.25;;;;;;;;;;5051201;28;20031;-41
2022/06/22 13:38:53;;;;;;;6.40;3.70;;;;;;;;;;5051460;28;20475;-42
2022/06/22 13:41:37;;;;;;;8.90;3.78;;;;;;;;;;5051188;28;20037;-42
2022/06/22 13:44:15;;;;;;;9.23;3.72;;;;;;;;;;5051043;28;20040;-41
2022/06/22 13:46:43;;;;;;;6.03;3.70;;;;;;;;;;5051299;28;20040;-41
2022/06/22 13:49:27;;;;;;;6.32;3.47;;;;;;;;;;5051040;28;20053;-41
2022/06/22 13:52:03;;;;;;;14.25;4.53;;;;;;;;;;5050996;28;20024;-41
2022/06/22 13:54:31;;;;;;;5.07;3.25;;;;;;;;;;5051131;28;20033;-42
2022/06/22 13:57:01;;;;;;;9.55;3.92;;;;;;;;;;5050952;28;20498;-42
2022/06/22 13:59:34;;;;;;;9.77;4.15;;;;;;;;;;5051292;28;20028;-42
2022/06/22 14:02:20;;;;;;;5.97;3.70;;;;;;;;;;5050784;28;20506;-42
2022/06/22 14:05:01;;;;;;;11.45;4.65;;;;;;;;;;5049587;28;20068;-41
2022/06/22 14:07:35;;;;;;;10.85;3.58;;;;;;;;;;5051271;28;20039;-42
2022/06/22 14:10:19;;;;;;;5.10;3.50;;;;;;;;;;5050809;28;20032;-42
2022/06/22 14:12:48;;;;;;;8.18;3.33;;;;;;;;;;5051183;28;20112;-42
2022/06/22 14:15:37;;;;;;;8.23;3.33;;;;;;;;;;5050654;28;20041;-41
2022/06/22 14:18:15;;;;;;;9.45;3.70;;;;;;;;;;5050869;28;20037;-41
2022/06/22 14:20:40;;;;;;;10.18;3.95;;;;;;;;;;5050799;28;20024;-42
2022/06/22 14:23:10;;;;;;;9.50;3.92;;;;;;;;;;5050675;28;20082;-41
2022/06/22 14:25:39;;;;;;;5.00;3.28;;;;;;;;;;5051071;28;20355;-42
2022/06/22 14:28:10;;;;;;;8.27;3.83;;;;;;;;;;5050707;28;20105;-41
2022/06/22 14:30:47;;;;;;;8.90;3.90;;;;;;;;;;5050772;28;20472;-41
2022/06/22 14:33:13;;;;;;;6.88;3.70;;;;;;;;;;5050708;28;20666;-42
2022/06/22 14:35:44;;;;;;;11.32;4.18;;;;;;;;;;5050553;28;20071;-41
2022/06/22 14:38:17;;;;;;;6.85;3.45;;;;;;;;;;5050941;28;20379;-41
2022/06/22 14:41:02;;;;;;;6.82;4.18;;;;;;;;;;5050739;28;20025;-41
2022/06/22 14:43:33;;;;;;;4.80;3.38;;;;;;;;;;5054227;28;20041;-42
2022/06/22 14:46:06;;;;;;;4.90;3.55;;;;;;;;;;5054188;28;20035;-41
2022/06/22 14:48:32;;;;;;;;;;;;;;;;;;5054651;28;20052;-42
2022/06/22 14:51:10;;;;;;;7.15;3.80;;;;;;;;;;5054041;28;20363;-41
2022/06/22 14:53:39;;;;;;;9.50;3.85;;;;;;;;;;5054114;28;20033;-41
2022/06/22 14:56:09;;;;;;;5.47;3.78;;;;;;;;;;5053890;28;20037;-42
2022/06/22 14:58:40;;;;;;;8.50;4.60;;;;;;;;;;5054175;28;20486;-41
2022/06/22 15:01:21;;;;;;;6.65;4.28;;;;;;;;;;5053995;28;20042;-42
2022/06/22 15:04:06;;;;;;;6.30;3.65;;;;;;;;;;5054182;28;20061;-42
2022/06/22 15:06:51;;;;;;;8.25;4.28;;;;;;;;;;5053892;28;20104;-42
2022/06/22 15:09:24;;;;;;;7.30;3.30;;;;;;;;;;5053776;28;20032;-41
2022/06/22 15:14:57;;;;;;;11.98;4.40;;;;;;;;;;5053554;28;20052;-42
2022/06/22 15:17:23;;;;;;;6.47;3.97;;;;;;;;;;5052943;28;20083;-42
2022/06/22 15:19:49;;;;;;;8.13;3.45;;;;;;;;;;5053664;28;20041;-41
2022/06/22 15:22:25;;;;;;;4.38;3.58;;;;;;;;;;5053475;28;20391;-42
2022/06/22 15:25:05;;;;;;;6.80;3.22;;;;;;;;;;5053432;28;20384;-42
2022/06/22 15:27:53;;;;;;;10.43;3.58;;;;;;;;;;5053495;28;20040;-42
2022/06/22 15:30:21;;;;;;;10.13;2.90;;;;;;;;;;5053312;28;20041;-42
2022/06/22 15:32:49;;;;;;;6.78;3.28;;;;;;;;;;5053535;28;20112;-42
2022/06/22 15:35:15;;;;;;;6.63;3.33;;;;;;;;;;5053387;28;20036;-42
2022/06/22 15:37:46;;;;;;;6.15;3.47;;;;;;;;;;5053300;28;20075;-41
2022/06/22 15:40:11;;;;;;;5.60;3.28;;;;;;;;;;5053205;28;20029;-41